sensor_id;sensor_type;location;lat;lon;timestamp;P1;durP1;ratioP1;P2;durP2;ratioP2
13568;SDS011;6856;51.460;7.158;2023-07-20T00:00:45;2.00;;;1.40;;
13568;SDS011;6856;51.460;7.158;2023-07-20T00:03:19;2.35;;;1.50;;
13568;SDS011;6856;51.460;7.158;2023-07-20T00:05:54;2.78;;;1.60;;
13568;SDS011;6856;51.460;7.158;2023-07-20T00:08:30;2.85;;;1.80;;
13568;SDS011;6856;51.460;7.158;2023-07-20T00:11:04;4.75;;;1.60;;
13568;SDS011;6856;51.460;7.158;2023-07-20T00:13:38;2.30;;;1.57;;
13568;SDS011;6856;51.460;7.158;2023-07-20T00:16:12;1.97;;;1.47;;
13568;SDS011;6856;51.460;7.158;2023-07-20T00:18:46;1.37;;;1.17;;
13568;SDS011;6856;51.460;7.158;2023-07-20T00:21:21;2.20;;;1.70;;
13568;SDS011;6856;51.460;7.158;2023-07-20T00:23:56;2.17;;;1.40;;
13568;SDS011;6856;51.460;7.158;2023-07-20T00:26:30;2.65;;;1.73;;
13568;SDS011;6856;51.460;7.158;2023-07-20T00:29:04;2.80;;;1.50;;
13568;SDS011;6856;51.460;7.158;2023-07-20T00:31:38;1.70;;;1.40;;
13568;SDS011;6856;51.460;7.158;2023-07-20T00:34:12;3.58;;;1.60;;
13568;SDS011;6856;51.460;7.158;2023-07-20T00:36:46;2.67;;;1.53;;
13568;SDS011;6856;51.460;7.158;2023-07-20T00:39:22;2.28;;;1.48;;
13568;SDS011;6856;51.460;7.158;2023-07-20T00:41:56;1.85;;;1.38;;
13568;SDS011;6856;51.460;7.158;2023-07-20T00:44:30;2.70;;;1.70;;
13568;SDS011;6856;51.460;7.158;2023-07-20T00:47:05;1.77;;;1.35;;
13568;SDS011;6856;51.460;7.158;2023-07-20T00:49:39;2.58;;;1.25;;
13568;SDS011;6856;51.460;7.158;2023-07-20T00:52:13;2.70;;;1.37;;
13568;SDS011;6856;51.460;7.158;2023-07-20T00:54:49;3.05;;;1.70;;
13568;SDS011;6856;51.460;7.158;2023-07-20T00:57:27;2.87;;;1.80;;
13568;SDS011;6856;51.460;7.158;2023-07-20T01:00:02;2.40;;;1.40;;
13568;SDS011;6856;51.460;7.158;2023-07-20T01:02:36;2.63;;;1.50;;
13568;SDS011;6856;51.460;7.158;2023-07-20T01:05:10;1.90;;;1.40;;
13568;SDS011;6856;51.460;7.158;2023-07-20T01:07:50;2.27;;;1.37;;
13568;SDS011;6856;51.460;7.158;2023-07-20T01:10:36;1.57;;;1.20;;
13568;SDS011;6856;51.460;7.158;2023-07-20T01:13:17;3.53;;;1.77;;
13568;SDS011;6856;51.460;7.158;2023-07-20T01:15:56;4.33;;;1.93;;
13568;SDS011;6856;51.460;7.158;2023-07-20T01:18:33;2.43;;;1.47;;
13568;SDS011;6856;51.460;7.158;2023-07-20T01:21:09;3.27;;;1.60;;
13568;SDS011;6856;51.460;7.158;2023-07-20T01:24:05;2.17;;;1.53;;
13568;SDS011;6856;51.460;7.158;2023-07-20T01:31:12;2.37;;;1.47;;
13568;SDS011;6856;51.460;7.158;2023-07-20T01:33:58;3.87;;;1.70;;
13568;SDS011;6856;51.460;7.158;2023-07-20T01:36:35;2.33;;;1.53;;
13568;SDS011;6856;51.460;7.158;2023-07-20T01:39:11;6.53;;;1.93;;
13568;SDS011;6856;51.460;7.158;2023-07-20T01:41:46;5.67;;;2.63;;
13568;SDS011;6856;51.460;7.158;2023-07-20T01:44:20;4.83;;;2.70;;
13568;SDS011;6856;51.460;7.158;2023-07-20T01:46:56;3.57;;;2.20;;
13568;SDS011;6856;51.460;7.158;2023-07-20T01:49:29;2.63;;;1.80;;
13568;SDS011;6856;51.460;7.158;2023-07-20T01:52:04;3.40;;;1.83;;
13568;SDS011;6856;51.460;7.158;2023-07-20T01:54:38;3.90;;;2.47;;
13568;SDS011;6856;51.460;7.158;2023-07-20T01:57:12;2.83;;;2.17;;
13568;SDS011;6856;51.460;7.158;2023-07-20T01:59:47;4.83;;;2.77;;
13568;SDS011;6856;51.460;7.158;2023-07-20T02:02:22;3.83;;;2.10;;
13568;SDS011;6856;51.460;7.158;2023-07-20T02:05:00;3.17;;;2.00;;
13568;SDS011;6856;51.460;7.158;2023-07-20T02:07:34;2.43;;;1.93;;
13568;SDS011;6856;51.460;7.158;2023-07-20T02:10:08;3.23;;;2.50;;
13568;SDS011;6856;51.460;7.158;2023-07-20T02:12:43;4.77;;;2.30;;
13568;SDS011;6856;51.460;7.158;2023-07-20T02:15:17;4.60;;;2.50;;
13568;SDS011;6856;51.460;7.158;2023-07-20T02:17:52;4.13;;;2.63;;
13568;SDS011;6856;51.460;7.158;2023-07-20T02:20:26;4.23;;;2.50;;
13568;SDS011;6856;51.460;7.158;2023-07-20T02:23:00;4.97;;;2.70;;
13568;SDS011;6856;51.460;7.158;2023-07-20T02:25:34;4.23;;;2.60;;
13568;SDS011;6856;51.460;7.158;2023-07-20T02:28:08;3.43;;;1.97;;
13568;SDS011;6856;51.460;7.158;2023-07-20T02:30:42;3.50;;;1.90;;
13568;SDS011;6856;51.460;7.158;2023-07-20T02:33:17;3.80;;;2.13;;
13568;SDS011;6856;51.460;7.158;2023-07-20T02:35:51;3.33;;;2.33;;
13568;SDS011;6856;51.460;7.158;2023-07-20T02:38:25;3.30;;;2.30;;
13568;SDS011;6856;51.460;7.158;2023-07-20T02:40:59;2.33;;;1.87;;
13568;SDS011;6856;51.460;7.158;2023-07-20T02:43:34;2.97;;;2.23;;
13568;SDS011;6856;51.460;7.158;2023-07-20T02:46:08;3.73;;;2.57;;
13568;SDS011;6856;51.460;7.158;2023-07-20T02:48:44;3.83;;;2.33;;
13568;SDS011;6856;51.460;7.158;2023-07-20T02:51:17;3.97;;;2.63;;
13568;SDS011;6856;51.460;7.158;2023-07-20T02:53:52;4.33;;;2.40;;
13568;SDS011;6856;51.460;7.158;2023-07-20T02:56:26;4.30;;;2.70;;
13568;SDS011;6856;51.460;7.158;2023-07-20T02:59:00;3.87;;;2.60;;
13568;SDS011;6856;51.460;7.158;2023-07-20T03:01:35;5.20;;;2.83;;
13568;SDS011;6856;51.460;7.158;2023-07-20T03:04:10;3.40;;;2.07;;
13568;SDS011;6856;51.460;7.158;2023-07-20T03:06:44;4.00;;;2.67;;
13568;SDS011;6856;51.460;7.158;2023-07-20T03:09:18;5.27;;;2.97;;
13568;SDS011;6856;51.460;7.158;2023-07-20T03:11:56;3.43;;;2.50;;
13568;SDS011;6856;51.460;7.158;2023-07-20T03:14:30;4.27;;;2.73;;
13568;SDS011;6856;51.460;7.158;2023-07-20T03:17:04;3.37;;;2.30;;
13568;SDS011;6856;51.460;7.158;2023-07-20T03:19:40;4.00;;;2.77;;
13568;SDS011;6856;51.460;7.158;2023-07-20T03:22:14;2.97;;;2.20;;
13568;SDS011;6856;51.460;7.158;2023-07-20T03:24:48;3.60;;;2.77;;
13568;SDS011;6856;51.460;7.158;2023-07-20T03:27:22;3.57;;;2.50;;
13568;SDS011;6856;51.460;7.158;2023-07-20T03:29:56;3.20;;;2.50;;
13568;SDS011;6856;51.460;7.158;2023-07-20T03:32:30;4.43;;;2.87;;
13568;SDS011;6856;51.460;7.158;2023-07-20T03:35:06;3.50;;;2.80;;
13568;SDS011;6856;51.460;7.158;2023-07-20T03:37:41;4.90;;;2.70;;
13568;SDS011;6856;51.460;7.158;2023-07-20T03:40:15;3.90;;;3.10;;
13568;SDS011;6856;51.460;7.158;2023-07-20T03:42:48;2.97;;;2.67;;
13568;SDS011;6856;51.460;7.158;2023-07-20T03:45:22;3.23;;;2.63;;
13568;SDS011;6856;51.460;7.158;2023-07-20T03:47:55;3.77;;;2.87;;
13568;SDS011;6856;51.460;7.158;2023-07-20T03:50:31;4.00;;;3.17;;
13568;SDS011;6856;51.460;7.158;2023-07-20T03:53:05;3.90;;;2.90;;
13568;SDS011;6856;51.460;7.158;2023-07-20T03:55:39;5.37;;;2.83;;
13568;SDS011;6856;51.460;7.158;2023-07-20T03:58:13;4.27;;;2.90;;
13568;SDS011;6856;51.460;7.158;2023-07-20T04:00:48;3.90;;;2.90;;
13568;SDS011;6856;51.460;7.158;2023-07-20T04:03:24;4.87;;;3.37;;
13568;SDS011;6856;51.460;7.158;2023-07-20T04:06:01;4.20;;;3.03;;
13568;SDS011;6856;51.460;7.158;2023-07-20T04:08:35;4.23;;;3.33;;
13568;SDS011;6856;51.460;7.158;2023-07-20T04:11:09;3.33;;;3.03;;
13568;SDS011;6856;51.460;7.158;2023-07-20T04:13:43;4.07;;;3.23;;
13568;SDS011;6856;51.460;7.158;2023-07-20T04:16:16;4.57;;;3.40;;
13568;SDS011;6856;51.460;7.158;2023-07-20T04:18:53;5.47;;;4.00;;
13568;SDS011;6856;51.460;7.158;2023-07-20T04:21:30;4.83;;;4.33;;
13568;SDS011;6856;51.460;7.158;2023-07-20T04:24:04;4.73;;;3.73;;
13568;SDS011;6856;51.460;7.158;2023-07-20T04:26:38;5.77;;;4.37;;
13568;SDS011;6856;51.460;7.158;2023-07-20T04:29:12;5.63;;;4.03;;
13568;SDS011;6856;51.460;7.158;2023-07-20T04:31:45;5.50;;;4.43;;
13568;SDS011;6856;51.460;7.158;2023-07-20T04:34:19;5.50;;;3.77;;
13568;SDS011;6856;51.460;7.158;2023-07-20T04:36:54;6.20;;;4.60;;
13568;SDS011;6856;51.460;7.158;2023-07-20T04:39:28;8.23;;;4.80;;
13568;SDS011;6856;51.460;7.158;2023-07-20T04:42:03;5.03;;;4.17;;
13568;SDS011;6856;51.460;7.158;2023-07-20T04:44:37;5.23;;;4.27;;
13568;SDS011;6856;51.460;7.158;2023-07-20T04:47:11;4.57;;;4.07;;
13568;SDS011;6856;51.460;7.158;2023-07-20T04:49:46;4.67;;;4.00;;
13568;SDS011;6856;51.460;7.158;2023-07-20T04:52:22;5.30;;;4.00;;
13568;SDS011;6856;51.460;7.158;2023-07-20T04:55:12;4.63;;;3.50;;
13568;SDS011;6856;51.460;7.158;2023-07-20T04:57:46;5.20;;;3.90;;
13568;SDS011;6856;51.460;7.158;2023-07-20T05:00:20;5.00;;;3.93;;
13568;SDS011;6856;51.460;7.158;2023-07-20T05:02:54;4.33;;;3.93;;
13568;SDS011;6856;51.460;7.158;2023-07-20T05:05:27;3.93;;;3.33;;
13568;SDS011;6856;51.460;7.158;2023-07-20T05:08:03;4.23;;;3.83;;
13568;SDS011;6856;51.460;7.158;2023-07-20T05:10:37;4.90;;;4.40;;
13568;SDS011;6856;51.460;7.158;2023-07-20T05:13:11;6.00;;;4.10;;
13568;SDS011;6856;51.460;7.158;2023-07-20T05:15:45;4.70;;;3.60;;
13568;SDS011;6856;51.460;7.158;2023-07-20T05:18:18;4.70;;;3.97;;
13568;SDS011;6856;51.460;7.158;2023-07-20T05:20:53;4.27;;;3.80;;
13568;SDS011;6856;51.460;7.158;2023-07-20T05:23:28;4.83;;;4.33;;
13568;SDS011;6856;51.460;7.158;2023-07-20T05:26:02;5.03;;;3.83;;
13568;SDS011;6856;51.460;7.158;2023-07-20T05:28:36;5.40;;;4.13;;
13568;SDS011;6856;51.460;7.158;2023-07-20T05:31:10;4.47;;;3.47;;
13568;SDS011;6856;51.460;7.158;2023-07-20T05:33:44;4.93;;;3.97;;
13568;SDS011;6856;51.460;7.158;2023-07-20T05:36:18;5.00;;;4.50;;
13568;SDS011;6856;51.460;7.158;2023-07-20T05:38:53;6.17;;;4.23;;
13568;SDS011;6856;51.460;7.158;2023-07-20T05:41:27;4.07;;;3.63;;
13568;SDS011;6856;51.460;7.158;2023-07-20T05:44:02;5.47;;;3.93;;
13568;SDS011;6856;51.460;7.158;2023-07-20T05:46:36;5.63;;;4.00;;
13568;SDS011;6856;51.460;7.158;2023-07-20T05:49:29;4.83;;;4.03;;
13568;SDS011;6856;51.460;7.158;2023-07-20T05:52:03;5.33;;;4.30;;
13568;SDS011;6856;51.460;7.158;2023-07-20T05:54:39;4.70;;;4.00;;
13568;SDS011;6856;51.460;7.158;2023-07-20T05:57:12;5.23;;;4.50;;
13568;SDS011;6856;51.460;7.158;2023-07-20T05:59:47;5.20;;;4.10;;
13568;SDS011;6856;51.460;7.158;2023-07-20T06:02:21;5.27;;;4.30;;
13568;SDS011;6856;51.460;7.158;2023-07-20T06:04:55;5.43;;;4.43;;
13568;SDS011;6856;51.460;7.158;2023-07-20T06:07:28;4.27;;;3.87;;
13568;SDS011;6856;51.460;7.158;2023-07-20T06:10:04;4.37;;;3.70;;
13568;SDS011;6856;51.460;7.158;2023-07-20T06:12:39;7.97;;;7.17;;
13568;SDS011;6856;51.460;7.158;2023-07-20T06:15:24;8.83;;;7.53;;
13568;SDS011;6856;51.460;7.158;2023-07-20T06:17:59;7.83;;;6.93;;
13568;SDS011;6856;51.460;7.158;2023-07-20T06:20:33;6.97;;;6.27;;
13568;SDS011;6856;51.460;7.158;2023-07-20T06:23:07;6.20;;;5.33;;
13568;SDS011;6856;51.460;7.158;2023-07-20T06:25:42;6.87;;;6.10;;
13568;SDS011;6856;51.460;7.158;2023-07-20T06:28:17;7.37;;;6.63;;
13568;SDS011;6856;51.460;7.158;2023-07-20T06:30:52;8.27;;;7.47;;
13568;SDS011;6856;51.460;7.158;2023-07-20T06:33:32;8.73;;;7.73;;
13568;SDS011;6856;51.460;7.158;2023-07-20T06:36:06;7.13;;;6.20;;
13568;SDS011;6856;51.460;7.158;2023-07-20T06:38:40;6.60;;;5.73;;
13568;SDS011;6856;51.460;7.158;2023-07-20T06:41:36;6.37;;;5.33;;
13568;SDS011;6856;51.460;7.158;2023-07-20T06:44:13;5.47;;;4.47;;
13568;SDS011;6856;51.460;7.158;2023-07-20T06:46:47;4.23;;;3.73;;
13568;SDS011;6856;51.460;7.158;2023-07-20T06:49:24;4.37;;;3.77;;
13568;SDS011;6856;51.460;7.158;2023-07-20T06:51:58;3.70;;;3.30;;
13568;SDS011;6856;51.460;7.158;2023-07-20T06:54:32;3.90;;;2.80;;
13568;SDS011;6856;51.460;7.158;2023-07-20T06:57:08;3.83;;;2.53;;
13568;SDS011;6856;51.460;7.158;2023-07-20T06:59:45;3.13;;;2.83;;
13568;SDS011;6856;51.460;7.158;2023-07-20T07:02:19;2.77;;;2.40;;
13568;SDS011;6856;51.460;7.158;2023-07-20T07:04:53;3.87;;;2.47;;
13568;SDS011;6856;51.460;7.158;2023-07-20T07:07:30;2.60;;;2.33;;
13568;SDS011;6856;51.460;7.158;2023-07-20T07:10:05;2.83;;;2.53;;
13568;SDS011;6856;51.460;7.158;2023-07-20T07:12:42;2.23;;;2.03;;
13568;SDS011;6856;51.460;7.158;2023-07-20T07:15:15;2.90;;;2.30;;
13568;SDS011;6856;51.460;7.158;2023-07-20T07:17:49;2.07;;;1.87;;
13568;SDS011;6856;51.460;7.158;2023-07-20T07:20:22;1.83;;;1.67;;
13568;SDS011;6856;51.460;7.158;2023-07-20T07:22:58;1.88;;;1.77;;
13568;SDS011;6856;51.460;7.158;2023-07-20T07:25:32;2.93;;;2.00;;
13568;SDS011;6856;51.460;7.158;2023-07-20T07:28:08;2.08;;;1.88;;
13568;SDS011;6856;51.460;7.158;2023-07-20T07:30:41;2.50;;;1.83;;
13568;SDS011;6856;51.460;7.158;2023-07-20T07:33:15;2.00;;;1.67;;
13568;SDS011;6856;51.460;7.158;2023-07-20T07:35:49;3.17;;;2.10;;
13568;SDS011;6856;51.460;7.158;2023-07-20T07:38:24;2.00;;;1.90;;
13568;SDS011;6856;51.460;7.158;2023-07-20T07:41:19;2.57;;;2.10;;
13568;SDS011;6856;51.460;7.158;2023-07-20T07:43:55;2.93;;;2.57;;
13568;SDS011;6856;51.460;7.158;2023-07-20T07:46:29;3.23;;;2.70;;
13568;SDS011;6856;51.460;7.158;2023-07-20T07:49:03;3.63;;;3.07;;
13568;SDS011;6856;51.460;7.158;2023-07-20T07:51:37;3.67;;;3.22;;
13568;SDS011;6856;51.460;7.158;2023-07-20T07:54:11;4.25;;;3.70;;
13568;SDS011;6856;51.460;7.158;2023-07-20T07:56:44;4.67;;;4.17;;
13568;SDS011;6856;51.460;7.158;2023-07-20T07:59:19;3.83;;;3.37;;
13568;SDS011;6856;51.460;7.158;2023-07-20T08:01:53;3.40;;;3.10;;
13568;SDS011;6856;51.460;7.158;2023-07-20T08:04:27;4.13;;;3.40;;
13568;SDS011;6856;51.460;7.158;2023-07-20T08:07:01;4.07;;;3.17;;
13568;SDS011;6856;51.460;7.158;2023-07-20T08:09:37;4.10;;;3.57;;
13568;SDS011;6856;51.460;7.158;2023-07-20T08:12:11;4.30;;;3.87;;
13568;SDS011;6856;51.460;7.158;2023-07-20T08:14:50;4.27;;;3.87;;
13568;SDS011;6856;51.460;7.158;2023-07-20T08:17:24;5.25;;;4.75;;
13568;SDS011;6856;51.460;7.158;2023-07-20T08:19:58;5.03;;;4.47;;
13568;SDS011;6856;51.460;7.158;2023-07-20T08:22:32;6.27;;;5.67;;
13568;SDS011;6856;51.460;7.158;2023-07-20T08:25:06;5.80;;;5.20;;
13568;SDS011;6856;51.460;7.158;2023-07-20T08:27:41;6.50;;;5.43;;
13568;SDS011;6856;51.460;7.158;2023-07-20T08:30:20;5.90;;;5.30;;
13568;SDS011;6856;51.460;7.158;2023-07-20T08:32:55;6.27;;;5.67;;
13568;SDS011;6856;51.460;7.158;2023-07-20T08:35:29;6.90;;;6.20;;
13568;SDS011;6856;51.460;7.158;2023-07-20T08:38:02;6.78;;;6.13;;
13568;SDS011;6856;51.460;7.158;2023-07-20T08:40:39;6.63;;;5.93;;
13568;SDS011;6856;51.460;7.158;2023-07-20T08:43:14;6.20;;;5.60;;
13568;SDS011;6856;51.460;7.158;2023-07-20T08:45:52;6.50;;;5.90;;
13568;SDS011;6856;51.460;7.158;2023-07-20T08:48:28;5.97;;;5.38;;
13568;SDS011;6856;51.460;7.158;2023-07-20T08:51:04;6.75;;;6.07;;
13568;SDS011;6856;51.460;7.158;2023-07-20T08:53:38;6.72;;;6.13;;
13568;SDS011;6856;51.460;7.158;2023-07-20T08:56:12;6.05;;;5.45;;
13568;SDS011;6856;51.460;7.158;2023-07-20T08:58:48;5.47;;;4.97;;
13568;SDS011;6856;51.460;7.158;2023-07-20T09:01:26;4.95;;;4.45;;
13568;SDS011;6856;51.460;7.158;2023-07-20T09:04:01;4.70;;;4.15;;
13568;SDS011;6856;51.460;7.158;2023-07-20T09:06:36;5.35;;;4.85;;
13568;SDS011;6856;51.460;7.158;2023-07-20T09:09:10;5.53;;;5.03;;
13568;SDS011;6856;51.460;7.158;2023-07-20T09:11:46;5.60;;;5.10;;
13568;SDS011;6856;51.460;7.158;2023-07-20T09:14:21;5.32;;;4.82;;
13568;SDS011;6856;51.460;7.158;2023-07-20T09:16:58;4.38;;;3.97;;
13568;SDS011;6856;51.460;7.158;2023-07-20T09:19:32;3.80;;;3.15;;
13568;SDS011;6856;51.460;7.158;2023-07-20T09:22:06;2.38;;;2.17;;
13568;SDS011;6856;51.460;7.158;2023-07-20T09:24:40;2.47;;;1.90;;
13568;SDS011;6856;51.460;7.158;2023-07-20T09:27:15;2.38;;;2.03;;
13568;SDS011;6856;51.460;7.158;2023-07-20T09:29:48;1.85;;;1.60;;
13568;SDS011;6856;51.460;7.158;2023-07-20T09:32:25;2.13;;;1.80;;
13568;SDS011;6856;51.460;7.158;2023-07-20T09:34:58;1.80;;;1.70;;
13568;SDS011;6856;51.460;7.158;2023-07-20T09:37:54;2.25;;;1.70;;
13568;SDS011;6856;51.460;7.158;2023-07-20T09:40:37;1.77;;;1.60;;
13568;SDS011;6856;51.460;7.158;2023-07-20T09:43:15;2.03;;;1.80;;
13568;SDS011;6856;51.460;7.158;2023-07-20T09:45:52;2.17;;;1.98;;
13568;SDS011;6856;51.460;7.158;2023-07-20T09:48:32;1.67;;;1.58;;
13568;SDS011;6856;51.460;7.158;2023-07-20T09:51:26;2.00;;;1.77;;
13568;SDS011;6856;51.460;7.158;2023-07-20T09:54:01;1.35;;;1.05;;
13568;SDS011;6856;51.460;7.158;2023-07-20T09:56:37;1.35;;;1.00;;
13568;SDS011;6856;51.460;7.158;2023-07-20T09:59:13;0.80;;;0.80;;
13568;SDS011;6856;51.460;7.158;2023-07-20T10:01:48;1.77;;;1.00;;
13568;SDS011;6856;51.460;7.158;2023-07-20T10:04:28;1.10;;;0.85;;
13568;SDS011;6856;51.460;7.158;2023-07-20T10:07:04;1.67;;;1.00;;
13568;SDS011;6856;51.460;7.158;2023-07-20T10:09:43;0.95;;;0.95;;
13568;SDS011;6856;51.460;7.158;2023-07-20T10:12:18;0.77;;;0.70;;
13568;SDS011;6856;51.460;7.158;2023-07-20T10:14:57;0.60;;;0.60;;
13568;SDS011;6856;51.460;7.158;2023-07-20T10:17:47;2.20;;;0.65;;
13568;SDS011;6856;51.460;7.158;2023-07-20T10:20:37;0.80;;;0.65;;
13568;SDS011;6856;51.460;7.158;2023-07-20T10:23:34;0.50;;;0.50;;
13568;SDS011;6856;51.460;7.158;2023-07-20T10:26:08;0.73;;;0.73;;
13568;SDS011;6856;51.460;7.158;2023-07-20T10:28:42;1.40;;;0.63;;
13568;SDS011;6856;51.460;7.158;2023-07-20T10:31:17;1.75;;;0.80;;
13568;SDS011;6856;51.460;7.158;2023-07-20T10:33:51;0.60;;;0.60;;
13568;SDS011;6856;51.460;7.158;2023-07-20T10:36:27;0.60;;;0.60;;
13568;SDS011;6856;51.460;7.158;2023-07-20T10:39:02;1.20;;;0.68;;
13568;SDS011;6856;51.460;7.158;2023-07-20T10:41:39;0.57;;;0.57;;
13568;SDS011;6856;51.460;7.158;2023-07-20T10:44:14;0.82;;;0.60;;
13568;SDS011;6856;51.460;7.158;2023-07-20T10:46:58;0.70;;;0.70;;
13568;SDS011;6856;51.460;7.158;2023-07-20T10:49:38;0.57;;;0.50;;
13568;SDS011;6856;51.460;7.158;2023-07-20T10:52:49;1.52;;;0.52;;
13568;SDS011;6856;51.460;7.158;2023-07-20T10:55:38;0.52;;;0.50;;
13568;SDS011;6856;51.460;7.158;2023-07-20T10:58:13;0.60;;;0.60;;
13568;SDS011;6856;51.460;7.158;2023-07-20T11:00:55;0.50;;;0.50;;
13568;SDS011;6856;51.460;7.158;2023-07-20T11:03:35;0.40;;;0.40;;
13568;SDS011;6856;51.460;7.158;2023-07-20T11:09:13;0.50;;;0.50;;
13568;SDS011;6856;51.460;7.158;2023-07-20T11:11:48;0.95;;;0.50;;
13568;SDS011;6856;51.460;7.158;2023-07-20T11:14:22;1.45;;;0.40;;
13568;SDS011;6856;51.460;7.158;2023-07-20T11:16:59;0.40;;;0.40;;
13568;SDS011;6856;51.460;7.158;2023-07-20T11:19:47;0.45;;;0.45;;
13568;SDS011;6856;51.460;7.158;2023-07-20T11:22:24;0.75;;;0.60;;
13568;SDS011;6856;51.460;7.158;2023-07-20T11:25:00;0.75;;;0.60;;
13568;SDS011;6856;51.460;7.158;2023-07-20T11:27:38;0.60;;;0.47;;
13568;SDS011;6856;51.460;7.158;2023-07-20T11:30:19;0.40;;;0.40;;
13568;SDS011;6856;51.460;7.158;2023-07-20T11:32:53;0.63;;;0.45;;
13568;SDS011;6856;51.460;7.158;2023-07-20T11:35:29;0.60;;;0.50;;
13568;SDS011;6856;51.460;7.158;2023-07-20T11:38:03;1.98;;;0.50;;
13568;SDS011;6856;51.460;7.158;2023-07-20T11:40:46;0.60;;;0.60;;
13568;SDS011;6856;51.460;7.158;2023-07-20T11:43:20;1.70;;;0.80;;
13568;SDS011;6856;51.460;7.158;2023-07-20T11:45:55;0.70;;;0.70;;
13568;SDS011;6856;51.460;7.158;2023-07-20T11:48:30;0.60;;;0.60;;
13568;SDS011;6856;51.460;7.158;2023-07-20T11:51:04;0.50;;;0.50;;
13568;SDS011;6856;51.460;7.158;2023-07-20T11:53:39;0.80;;;0.60;;
13568;SDS011;6856;51.460;7.158;2023-07-20T11:56:16;0.70;;;0.70;;
13568;SDS011;6856;51.460;7.158;2023-07-20T11:58:50;0.75;;;0.52;;
13568;SDS011;6856;51.460;7.158;2023-07-20T12:01:30;0.50;;;0.50;;
13568;SDS011;6856;51.460;7.158;2023-07-20T12:04:07;0.88;;;0.68;;
13568;SDS011;6856;51.460;7.158;2023-07-20T12:06:40;0.57;;;0.57;;
13568;SDS011;6856;51.460;7.158;2023-07-20T12:09:16;1.23;;;0.80;;
13568;SDS011;6856;51.460;7.158;2023-07-20T12:11:52;0.85;;;0.60;;
13568;SDS011;6856;51.460;7.158;2023-07-20T12:14:27;0.70;;;0.70;;
13568;SDS011;6856;51.460;7.158;2023-07-20T12:17:04;2.08;;;0.60;;
13568;SDS011;6856;51.460;7.158;2023-07-20T12:19:41;1.05;;;0.60;;
13568;SDS011;6856;51.460;7.158;2023-07-20T12:22:15;0.63;;;0.63;;
13568;SDS011;6856;51.460;7.158;2023-07-20T12:24:52;3.90;;;0.57;;
13568;SDS011;6856;51.460;7.158;2023-07-20T12:27:28;0.50;;;0.50;;
13568;SDS011;6856;51.460;7.158;2023-07-20T12:30:02;1.10;;;0.65;;
13568;SDS011;6856;51.460;7.158;2023-07-20T12:32:39;0.95;;;0.65;;
13568;SDS011;6856;51.460;7.158;2023-07-20T12:35:12;0.57;;;0.57;;
13568;SDS011;6856;51.460;7.158;2023-07-20T12:37:47;0.85;;;0.85;;
13568;SDS011;6856;51.460;7.158;2023-07-20T12:40:23;0.60;;;0.60;;
13568;SDS011;6856;51.460;7.158;2023-07-20T12:42:58;1.45;;;0.70;;
13568;SDS011;6856;51.460;7.158;2023-07-20T12:45:32;0.80;;;0.80;;
13568;SDS011;6856;51.460;7.158;2023-07-20T12:48:07;2.20;;;0.80;;
13568;SDS011;6856;51.460;7.158;2023-07-20T12:50:41;0.98;;;0.90;;
13568;SDS011;6856;51.460;7.158;2023-07-20T12:53:15;0.82;;;0.80;;
13568;SDS011;6856;51.460;7.158;2023-07-20T12:58:52;0.70;;;0.70;;
13568;SDS011;6856;51.460;7.158;2023-07-20T13:01:26;1.80;;;0.85;;
13568;SDS011;6856;51.460;7.158;2023-07-20T13:04:01;1.02;;;0.73;;
13568;SDS011;6856;51.460;7.158;2023-07-20T13:06:38;1.15;;;0.82;;
13568;SDS011;6856;51.460;7.158;2023-07-20T13:09:17;0.75;;;0.75;;
13568;SDS011;6856;51.460;7.158;2023-07-20T13:11:50;1.00;;;0.90;;
13568;SDS011;6856;51.460;7.158;2023-07-20T13:14:26;2.08;;;0.75;;
13568;SDS011;6856;51.460;7.158;2023-07-20T13:17:00;0.68;;;0.68;;
13568;SDS011;6856;51.460;7.158;2023-07-20T13:19:37;1.48;;;0.85;;
13568;SDS011;6856;51.460;7.158;2023-07-20T13:22:11;1.23;;;0.90;;
13568;SDS011;6856;51.460;7.158;2023-07-20T13:24:46;1.10;;;0.90;;
13568;SDS011;6856;51.460;7.158;2023-07-20T13:27:20;0.60;;;0.60;;
13568;SDS011;6856;51.460;7.158;2023-07-20T13:29:58;1.67;;;0.98;;
13568;SDS011;6856;51.460;7.158;2023-07-20T13:32:40;6.30;;;0.90;;
13568;SDS011;6856;51.460;7.158;2023-07-20T13:35:15;0.93;;;0.90;;
13568;SDS011;6856;51.460;7.158;2023-07-20T13:37:49;1.55;;;0.68;;
13568;SDS011;6856;51.460;7.158;2023-07-20T13:40:23;1.27;;;0.80;;
13568;SDS011;6856;51.460;7.158;2023-07-20T13:42:57;0.95;;;0.70;;
13568;SDS011;6856;51.460;7.158;2023-07-20T13:45:33;0.93;;;0.82;;
13568;SDS011;6856;51.460;7.158;2023-07-20T13:48:07;1.00;;;0.90;;
13568;SDS011;6856;51.460;7.158;2023-07-20T13:50:41;0.93;;;0.93;;
13568;SDS011;6856;51.460;7.158;2023-07-20T13:53:29;0.80;;;0.80;;
13568;SDS011;6856;51.460;7.158;2023-07-20T13:56:06;1.60;;;1.05;;
13568;SDS011;6856;51.460;7.158;2023-07-20T13:58:43;1.08;;;0.88;;
13568;SDS011;6856;51.460;7.158;2023-07-20T14:01:23;0.88;;;0.88;;
13568;SDS011;6856;51.460;7.158;2023-07-20T14:04:01;1.60;;;1.00;;
13568;SDS011;6856;51.460;7.158;2023-07-20T14:06:36;0.95;;;0.70;;
13568;SDS011;6856;51.460;7.158;2023-07-20T14:09:10;0.95;;;0.88;;
13568;SDS011;6856;51.460;7.158;2023-07-20T14:11:44;1.63;;;0.90;;
13568;SDS011;6856;51.460;7.158;2023-07-20T14:14:20;1.33;;;0.77;;
13568;SDS011;6856;51.460;7.158;2023-07-20T14:16:56;0.90;;;0.80;;
13568;SDS011;6856;51.460;7.158;2023-07-20T14:19:30;1.33;;;0.93;;
13568;SDS011;6856;51.460;7.158;2023-07-20T14:22:04;0.93;;;0.80;;
13568;SDS011;6856;51.460;7.158;2023-07-20T14:24:39;1.02;;;0.75;;
13568;SDS011;6856;51.460;7.158;2023-07-20T14:27:14;1.17;;;0.80;;
13568;SDS011;6856;51.460;7.158;2023-07-20T14:29:48;1.92;;;0.85;;
13568;SDS011;6856;51.460;7.158;2023-07-20T14:32:23;0.65;;;0.60;;
13568;SDS011;6856;51.460;7.158;2023-07-20T14:34:58;1.27;;;0.70;;
13568;SDS011;6856;51.460;7.158;2023-07-20T14:37:32;1.10;;;0.88;;
13568;SDS011;6856;51.460;7.158;2023-07-20T14:40:06;0.70;;;0.70;;
13568;SDS011;6856;51.460;7.158;2023-07-20T14:42:41;0.70;;;0.70;;
13568;SDS011;6856;51.460;7.158;2023-07-20T14:45:17;0.93;;;0.75;;
13568;SDS011;6856;51.460;7.158;2023-07-20T14:47:53;0.88;;;0.80;;
13568;SDS011;6856;51.460;7.158;2023-07-20T14:50:27;1.00;;;0.90;;
13568;SDS011;6856;51.460;7.158;2023-07-20T14:53:00;1.27;;;0.80;;
13568;SDS011;6856;51.460;7.158;2023-07-20T14:55:37;0.68;;;0.60;;
13568;SDS011;6856;51.460;7.158;2023-07-20T14:58:11;0.55;;;0.55;;
13568;SDS011;6856;51.460;7.158;2023-07-20T15:00:44;1.27;;;0.70;;
13568;SDS011;6856;51.460;7.158;2023-07-20T15:03:20;0.90;;;0.75;;
13568;SDS011;6856;51.460;7.158;2023-07-20T15:05:54;1.35;;;0.60;;
13568;SDS011;6856;51.460;7.158;2023-07-20T15:08:28;1.15;;;0.70;;
13568;SDS011;6856;51.460;7.158;2023-07-20T15:11:03;1.30;;;0.77;;
13568;SDS011;6856;51.460;7.158;2023-07-20T15:13:37;1.60;;;0.52;;
13568;SDS011;6856;51.460;7.158;2023-07-20T15:16:13;0.73;;;0.70;;
13568;SDS011;6856;51.460;7.158;2023-07-20T15:18:48;0.90;;;0.65;;
13568;SDS011;6856;51.460;7.158;2023-07-20T15:21:22;1.10;;;0.60;;
13568;SDS011;6856;51.460;7.158;2023-07-20T15:23:57;1.77;;;1.10;;
13568;SDS011;6856;51.460;7.158;2023-07-20T15:26:31;1.27;;;0.85;;
13568;SDS011;6856;51.460;7.158;2023-07-20T15:29:06;1.65;;;0.70;;
13568;SDS011;6856;51.460;7.158;2023-07-20T15:32:01;0.70;;;0.70;;
13568;SDS011;6856;51.460;7.158;2023-07-20T15:34:36;0.75;;;0.70;;
13568;SDS011;6856;51.460;7.158;2023-07-20T15:37:10;1.10;;;0.60;;
13568;SDS011;6856;51.460;7.158;2023-07-20T15:39:47;0.55;;;0.55;;
13568;SDS011;6856;51.460;7.158;2023-07-20T15:42:21;0.65;;;0.65;;
13568;SDS011;6856;51.460;7.158;2023-07-20T15:45:09;1.38;;;0.95;;
13568;SDS011;6856;51.460;7.158;2023-07-20T15:47:43;0.82;;;0.70;;
13568;SDS011;6856;51.460;7.158;2023-07-20T15:50:19;0.77;;;0.77;;
13568;SDS011;6856;51.460;7.158;2023-07-20T15:52:53;0.90;;;0.70;;
13568;SDS011;6856;51.460;7.158;2023-07-20T15:55:28;1.05;;;0.75;;
13568;SDS011;6856;51.460;7.158;2023-07-20T15:58:02;1.40;;;0.70;;
13568;SDS011;6856;51.460;7.158;2023-07-20T16:00:36;1.00;;;0.77;;
13568;SDS011;6856;51.460;7.158;2023-07-20T16:03:10;0.80;;;0.80;;